Time;durP1;ratioP1;P1;durP2;ratioP2;P2;SDS_P1;SDS_P2;PMS_P1;PMS_P2;Temp;Humidity;BMP_temperature;BMP_pressure;BME280_temperature;BME280_humidity;BME280_pressure;Samples;Min_cycle;Max_cycle;Signal;HPM_P1;HPM_P2
2022/11/16 00:01:13;;;;;;;10.52;9.82;;;;;;;;;;4992346;28;20061;-61
2022/11/16 00:03:38;;;;;;;10.48;9.57;;;;;;;;;;4997391;28;20482;-61
2022/11/16 00:06:05;;;;;;;11.80;11.00;;;;;;;;;;4995140;28;20037;-60
2022/11/16 00:08:37;;;;;;;10.10;9.50;;;;;;;;;;4993319;28;20056;-61
2022/11/16 00:11:08;;;;;;;11.43;10.63;;;;;;;;;;4995108;28;20032;-60
2022/11/16 00:13:34;;;;;;;9.73;9.13;;;;;;;;;;4993359;28;20172;-60
2022/11/16 00:16:00;;;;;;;10.35;9.65;;;;;;;;;;4994671;28;20049;-60
2022/11/16 00:18:25;;;;;;;11.02;10.32;;;;;;;;;;4994328;28;20030;-61
2022/11/16 00:20:51;;;;;;;10.02;9.32;;;;;;;;;;4993236;28;20026;-61
2022/11/16 00:23:16;;;;;;;9.75;9.15;;;;;;;;;;4996173;28;20038;-60
2022/11/16 00:25:42;;;;;;;11.63;10.82;;;;;;;;;;4994000;28;20049;-61
2022/11/16 00:28:08;;;;;;;10.75;10.05;;;;;;;;;;4993337;28;20117;-60
2022/11/16 00:30:34;;;;;;;10.90;10.20;;;;;;;;;;4991066;28;20041;-61
2022/11/16 00:33:03;;;;;;;11.10;10.40;;;;;;;;;;4993575;28;20037;-61
2022/11/16 00:35:29;;;;;;;10.60;9.90;;;;;;;;;;4995874;28;20026;-61
2022/11/16 00:37:54;;;;;;;12.68;11.48;;;;;;;;;;4996112;28;20033;-60
2022/11/16 00:40:20;;;;;;;11.95;11.20;;;;;;;;;;4996104;28;20034;-61
2022/11/16 00:42:45;;;;;;;10.75;10.05;;;;;;;;;;4992423;28;20056;-60
2022/11/16 00:45:10;;;;;;;11.40;10.68;;;;;;;;;;4995133;28;20069;-60
2022/11/16 00:47:36;;;;;;;11.15;10.35;;;;;;;;;;4994909;28;20436;-60
2022/11/16 00:50:02;;;;;;;11.02;10.13;;;;;;;;;;4996810;28;20440;-60
2022/11/16 00:52:27;;;;;;;10.90;10.20;;;;;;;;;;4994931;28;20495;-60
2022/11/16 00:54:53;;;;;;;12.00;11.20;;;;;;;;;;4996700;28;20405;-59
2022/11/16 00:57:18;;;;;;;9.55;8.95;;;;;;;;;;4992284;28;20117;-60
2022/11/16 00:59:43;;;;;;;10.02;9.43;;;;;;;;;;4993336;28;20038;-60
2022/11/16 01:02:09;;;;;;;10.32;9.68;;;;;;;;;;4992240;28;20153;-60
2022/11/16 01:04:34;;;;;;;9.73;9.13;;;;;;;;;;4993226;28;20033;-60
2022/11/16 01:07:00;;;;;;;12.30;11.48;;;;;;;;;;4984122;28;20022;-60
2022/11/16 01:09:25;;;;;;;11.52;10.82;;;;;;;;;;4993732;28;20041;-60
2022/11/16 01:12:08;;;;;;;10.45;9.80;;;;;;;;;;4997708;28;20042;-60
2022/11/16 01:14:43;;;;;;;10.48;9.82;;;;;;;;;;5001207;28;20033;-60
2022/11/16 01:17:09;;;;;;;12.00;11.20;;;;;;;;;;4997084;28;20034;-60
2022/11/16 01:19:35;;;;;;;10.88;10.18;;;;;;;;;;4998466;28;20044;-60
2022/11/16 01:22:01;;;;;;;10.45;9.82;;;;;;;;;;4997132;28;20117;-60
2022/11/16 01:24:27;;;;;;;11.52;10.82;;;;;;;;;;4998841;28;20113;-61
2022/11/16 01:26:56;;;;;;;10.73;9.93;;;;;;;;;;5001761;28;20041;-61
2022/11/16 01:29:26;;;;;;;11.13;10.32;;;;;;;;;;4998218;28;20063;-61
2022/11/16 01:31:52;;;;;;;10.95;10.25;;;;;;;;;;4997204;28;20041;-61
2022/11/16 01:34:17;;;;;;;11.73;11.02;;;;;;;;;;4996426;28;20342;-61
2022/11/16 01:36:43;;;;;;;11.50;10.80;;;;;;;;;;4999136;28;20057;-61
2022/11/16 01:39:10;;;;;;;11.82;11.13;;;;;;;;;;4995043;28;20052;-61
2022/11/16 01:41:36;;;;;;;12.70;11.90;;;;;;;;;;4995747;28;20034;-61
2022/11/16 01:44:25;;;;;;;13.70;12.27;;;;;;;;;;4995194;28;20418;-60
2022/11/16 01:46:51;;;;;;;12.82;12.00;;;;;;;;;;4997097;28;20034;-61
2022/11/16 01:49:19;;;;;;;11.07;10.38;;;;;;;;;;4997156;28;20112;-61
2022/11/16 01:51:50;;;;;;;12.13;11.15;;;;;;;;;;4995105;28;20057;-61
2022/11/16 01:54:15;;;;;;;11.13;10.43;;;;;;;;;;4994411;28;20033;-61
2022/11/16 01:56:45;;;;;;;11.65;10.95;;;;;;;;;;4996423;28;20042;-61
2022/11/16 01:59:12;;;;;;;12.15;11.38;;;;;;;;;;4998306;28;20040;-61
2022/11/16 02:01:38;;;;;;;11.27;10.57;;;;;;;;;;4995431;28;20033;-60
2022/11/16 02:04:03;;;;;;;11.52;10.82;;;;;;;;;;4997818;28;20511;-60
2022/11/16 02:06:45;;;;;;;11.85;11.10;;;;;;;;;;4997852;28;20034;-60
2022/11/16 02:09:53;;;;;;;13.45;11.45;;;;;;;;;;4995925;28;20045;-60
2022/11/16 02:12:34;;;;;;;11.18;10.48;;;;;;;;;;4995730;28;20026;-60
2022/11/16 02:15:08;;;;;;;10.55;9.90;;;;;;;;;;4995197;28;20097;-60
2022/11/16 02:18:05;;;;;;;12.13;11.38;;;;;;;;;;4994676;28;20096;-60
2022/11/16 02:20:47;;;;;;;11.82;11.13;;;;;;;;;;5002305;28;20034;-60
2022/11/16 02:23:24;;;;;;;11.07;10.38;;;;;;;;;;4996780;28;20368;-60
2022/11/16 02:26:37;;;;;;;12.05;11.30;;;;;;;;;;4994802;28;20176;-60
2022/11/16 02:29:47;;;;;;;11.90;11.18;;;;;;;;;;4988800;28;20050;-60
2022/11/16 02:32:19;;;;;;;10.48;9.77;;;;;;;;;;4995538;28;20052;-60
2022/11/16 02:34:54;;;;;;;10.90;10.20;;;;;;;;;;4995436;28;20026;-61
2022/11/16 02:37:23;;;;;;;11.20;10.50;;;;;;;;;;4996864;28;20030;-60
2022/11/16 02:39:56;;;;;;;11.85;11.15;;;;;;;;;;4994466;28;20034;-60
2022/11/16 02:42:28;;;;;;;12.55;11.73;;;;;;;;;;4995134;28;20037;-60
2022/11/16 02:44:56;;;;;;;11.40;10.70;;;;;;;;;;4994516;28;20113;-60
2022/11/16 02:47:26;;;;;;;13.25;12.45;;;;;;;;;;4994755;28;20041;-59
2022/11/16 02:50:00;;;;;;;11.95;11.25;;;;;;;;;;4996756;28;20033;-59
2022/11/16 02:52:27;;;;;;;13.63;12.82;;;;;;;;;;4998702;28;20103;-60
2022/11/16 02:54:52;;;;;;;11.70;10.98;;;;;;;;;;4994332;28;20058;-60
2022/11/16 02:57:39;;;;;;;13.75;12.85;;;;;;;;;;4995165;28;20065;-60
2022/11/16 03:00:07;;;;;;;11.57;10.82;;;;;;;;;;4994893;28;20045;-60
2022/11/16 03:03:02;;;;;;;12.10;11.20;;;;;;;;;;4993828;28;20137;-61
2022/11/16 03:05:51;;;;;;;12.23;11.40;;;;;;;;;;4977492;28;20401;-60
2022/11/16 03:08:28;;;;;;;11.52;10.82;;;;;;;;;;4997718;28;20034;-60
2022/11/16 03:13:44;;;;;;;12.93;12.13;;;;;;;;;;4998468;28;20116;-59
2022/11/16 03:16:17;;;;;;;13.27;12.48;;;;;;;;;;4996503;28;20087;-59
2022/11/16 03:18:44;;;;;;;14.70;13.65;;;;;;;;;;4996526;28;20052;-59
2022/11/16 03:21:16;;;;;;;13.65;12.80;;;;;;;;;;4995898;28;20456;-59
2022/11/16 03:23:44;;;;;;;12.98;12.20;;;;;;;;;;4992912;28;20027;-59
2022/11/16 03:26:11;;;;;;;13.18;12.40;;;;;;;;;;4994460;28;20033;-60
2022/11/16 03:28:54;;;;;;;13.77;12.95;;;;;;;;;;4994956;28;20618;-60
2022/11/16 03:31:33;;;;;;;11.43;10.73;;;;;;;;;;4996030;28;20651;-60
2022/11/16 03:34:04;;;;;;;12.68;11.85;;;;;;;;;;4994785;28;20026;-60
2022/11/16 03:36:35;;;;;;;13.63;12.75;;;;;;;;;;4993391;28;20041;-60
2022/11/16 03:39:07;;;;;;;13.63;12.68;;;;;;;;;;4995919;28;20026;-60
2022/11/16 03:41:36;;;;;;;13.85;12.95;;;;;;;;;;4994849;28;20034;-61
2022/11/16 03:44:03;;;;;;;14.25;13.43;;;;;;;;;;4992960;28;20042;-60
2022/11/16 03:46:29;;;;;;;14.95;13.75;;;;;;;;;;4992349;28;20471;-61
2022/11/16 03:48:59;;;;;;;13.52;12.73;;;;;;;;;;4992285;28;20026;-60
2022/11/16 03:51:25;;;;;;;11.77;11.07;;;;;;;;;;4996600;28;20040;-60
2022/11/16 03:53:50;;;;;;;13.00;12.15;;;;;;;;;;4993795;28;20027;-59
2022/11/16 03:56:15;;;;;;;13.40;12.55;;;;;;;;;;4993785;28;20037;-60
2022/11/16 03:58:41;;;;;;;15.63;14.63;;;;;;;;;;4995133;28;20113;-60
2022/11/16 04:01:06;;;;;;;14.48;13.57;;;;;;;;;;4992803;28;20085;-60
2022/11/16 04:03:32;;;;;;;13.88;13.00;;;;;;;;;;4993020;28;20030;-60
2022/11/16 04:25:24;;;;;;;12.30;11.50;;;;;;;;;;4991986;28;20113;-54
2022/11/16 04:37:47;;;;;;;14.20;13.32;;;;;;;;;;4991492;28;20419;-53
2022/11/16 04:38:47;;;;;;;12.75;11.90;;;;;;;;;;4993331;28;20044;-54
2022/11/16 04:42:13;;;;;;;15.07;12.10;;;;;;;;;;4992447;28;20030;-56
2022/11/16 04:43:58;;;;;;;12.48;11.75;;;;;;;;;;4996822;28;20053;-55
2022/11/16 04:49:07;;;;;;;12.80;12.00;;;;;;;;;;4998587;28;20029;-53
2022/11/16 04:51:33;;;;;;;13.98;12.43;;;;;;;;;;4997255;28;20042;-56
2022/11/16 04:53:58;;;;;;;13.52;12.63;;;;;;;;;;4998654;28;20030;-55
2022/11/16 04:56:23;;;;;;;12.80;12.00;;;;;;;;;;4999260;28;20034;-55
2022/11/16 04:58:49;;;;;;;13.30;12.40;;;;;;;;;;4998283;28;20086;-54
2022/11/16 05:01:14;;;;;;;14.15;13.27;;;;;;;;;;4998687;28;20634;-55
2022/11/16 05:03:40;;;;;;;14.32;13.30;;;;;;;;;;4993955;28;20524;-55
2022/11/16 05:06:05;;;;;;;15.13;14.13;;;;;;;;;;4994566;28;20038;-56
2022/11/16 05:08:31;;;;;;;13.23;12.35;;;;;;;;;;4996040;28;20037;-55
2022/11/16 05:10:56;;;;;;;15.02;13.82;;;;;;;;;;4998042;28;20017;-55
2022/11/16 05:13:21;;;;;;;13.43;12.57;;;;;;;;;;4998187;28;20034;-54
2022/11/16 05:15:47;;;;;;;12.68;11.88;;;;;;;;;;4998630;28;20116;-56
2022/11/16 05:18:12;;;;;;;13.63;12.80;;;;;;;;;;4999003;28;20030;-55
2022/11/16 05:26:05;;;;;;;13.05;12.18;;;;;;;;;;4996786;28;20074;-53
2022/11/16 05:28:30;;;;;;;12.25;11.45;;;;;;;;;;4996691;28;20443;-54
2022/11/16 05:30:56;;;;;;;13.88;12.98;;;;;;;;;;4997739;28;20094;-54
2022/11/16 05:33:21;;;;;;;14.23;13.32;;;;;;;;;;4994553;28;20057;-52
2022/11/16 05:35:49;;;;;;;14.07;13.18;;;;;;;;;;4996894;28;20511;-53
2022/11/16 05:38:15;;;;;;;12.98;12.13;;;;;;;;;;4993897;28;20364;-54
2022/11/16 05:40:40;;;;;;;13.57;12.70;;;;;;;;;;4994989;28;20037;-53
2022/11/16 05:43:05;;;;;;;13.13;12.32;;;;;;;;;;4996241;28;20052;-55
2022/11/16 05:45:31;;;;;;;13.07;12.18;;;;;;;;;;4997652;28;20076;-54
2022/11/16 05:47:56;;;;;;;13.48;12.57;;;;;;;;;;4997130;28;20037;-53
2022/11/16 05:50:21;;;;;;;12.93;12.13;;;;;;;;;;4994989;28;20108;-54
2022/11/16 05:52:47;;;;;;;12.88;12.02;;;;;;;;;;4993162;28;20535;-53
2022/11/16 05:55:12;;;;;;;12.30;11.50;;;;;;;;;;4996326;28;20034;-53
2022/11/16 05:57:38;;;;;;;13.30;12.43;;;;;;;;;;4996702;28;20575;-54
2022/11/16 06:00:03;;;;;;;13.80;12.75;;;;;;;;;;4994768;28;20044;-55
2022/11/16 06:02:31;;;;;;;13.27;12.43;;;;;;;;;;4993720;28;20061;-53
2022/11/16 06:04:57;;;;;;;12.65;11.85;;;;;;;;;;4995365;28;20034;-56
2022/11/16 06:07:22;;;;;;;11.77;11.02;;;;;;;;;;4992896;28;20032;-54
2022/11/16 06:09:47;;;;;;;14.80;13.80;;;;;;;;;;4995642;28;20106;-53
2022/11/16 06:12:13;;;;;;;12.63;11.80;;;;;;;;;;4993363;28;20034;-55
2022/11/16 06:14:38;;;;;;;13.52;12.70;;;;;;;;;;4995300;28;20064;-55
2022/11/16 06:17:03;;;;;;;12.30;11.50;;;;;;;;;;4996751;28;20064;-56
2022/11/16 06:19:29;;;;;;;13.77;12.88;;;;;;;;;;4998629;28;20046;-55
2022/11/16 06:21:55;;;;;;;13.82;12.93;;;;;;;;;;4993828;28;20114;-56
2022/11/16 06:24:21;;;;;;;12.95;12.15;;;;;;;;;;4992630;28;20445;-54
2022/11/16 06:26:46;;;;;;;13.18;12.35;;;;;;;;;;4991067;28;20045;-56
2022/11/16 06:29:11;;;;;;;12.68;11.88;;;;;;;;;;4994276;28;20104;-56
2022/11/16 06:31:37;;;;;;;12.23;11.43;;;;;;;;;;4992037;28;20038;-56
2022/11/16 06:34:02;;;;;;;13.57;12.75;;;;;;;;;;4995257;28;20383;-56
2022/11/16 06:36:28;;;;;;;13.75;12.77;;;;;;;;;;4995582;28;20200;-56
2022/11/16 06:38:53;;;;;;;13.73;12.73;;;;;;;;;;4995056;28;20643;-55
2022/11/16 06:41:19;;;;;;;14.98;14.07;;;;;;;;;;4994030;28;20102;-55
2022/11/16 06:43:44;;;;;;;13.38;12.48;;;;;;;;;;4994901;28;20046;-55
2022/11/16 06:46:10;;;;;;;13.25;12.32;;;;;;;;;;4991629;28;20030;-51
2022/11/16 06:48:35;;;;;;;13.52;12.57;;;;;;;;;;4985532;28;20042;-57
2022/11/16 06:51:01;;;;;;;13.00;12.13;;;;;;;;;;4992031;28;20034;-54
2022/11/16 06:53:27;;;;;;;12.70;11.90;;;;;;;;;;4997840;28;20041;-53
2022/11/16 06:55:52;;;;;;;13.57;12.77;;;;;;;;;;4994587;28;20088;-51
2022/11/16 06:58:17;;;;;;;12.15;11.38;;;;;;;;;;4996841;28;20436;-53
2022/11/16 07:00:43;;;;;;;12.38;11.57;;;;;;;;;;4994101;28;20038;-56
2022/11/16 07:03:08;;;;;;;12.75;11.85;;;;;;;;;;4992876;28;20389;-55
2022/11/16 07:05:38;;;;;;;12.43;11.50;;;;;;;;;;4993261;28;20849;-55
2022/11/16 07:08:04;;;;;;;12.50;11.63;;;;;;;;;;4995158;28;20121;-55
2022/11/16 07:10:29;;;;;;;11.73;10.93;;;;;;;;;;4992570;28;20540;-54
2022/11/16 07:12:55;;;;;;;11.82;11.02;;;;;;;;;;4994000;28;20018;-54
2022/11/16 07:15:20;;;;;;;12.68;11.85;;;;;;;;;;4995813;28;20073;-56
2022/11/16 07:17:46;;;;;;;11.93;11.15;;;;;;;;;;4993121;28;20487;-53
2022/11/16 07:20:12;;;;;;;12.88;11.88;;;;;;;;;;4994395;28;20053;-56
2022/11/16 07:22:37;;;;;;;14.10;13.20;;;;;;;;;;4991595;28;20037;-54
2022/11/16 07:25:03;;;;;;;13.43;12.52;;;;;;;;;;4993839;28;20017;-54
2022/11/16 07:27:28;;;;;;;11.98;11.27;;;;;;;;;;4995383;28;20196;-56
2022/11/16 07:29:54;;;;;;;12.13;11.32;;;;;;;;;;4990615;28;20045;-55
2022/11/16 07:32:19;;;;;;;12.68;11.85;;;;;;;;;;4994045;28;20038;-55
2022/11/16 07:34:45;;;;;;;12.32;11.52;;;;;;;;;;4992911;28;20157;-56
2022/11/16 07:37:10;;;;;;;13.07;12.18;;;;;;;;;;4992218;28;20042;-56
2022/11/16 07:39:35;;;;;;;12.90;12.00;;;;;;;;;;4989144;28;20133;-54
2022/11/16 07:42:01;;;;;;;10.98;10.27;;;;;;;;;;4989807;28;20113;-56
2022/11/16 07:44:26;;;;;;;12.52;11.68;;;;;;;;;;4995165;28;20030;-56
2022/11/16 07:46:51;;;;;;;11.57;10.77;;;;;;;;;;4994663;28;20088;-55
2022/11/16 07:49:17;;;;;;;11.43;10.63;;;;;;;;;;4993242;28;20142;-56
2022/11/16 07:51:44;;;;;;;12.50;11.60;;;;;;;;;;4992642;28;20053;-55
2022/11/16 07:54:13;;;;;;;11.90;11.20;;;;;;;;;;4991309;28;20460;-56
2022/11/16 07:56:39;;;;;;;13.43;12.52;;;;;;;;;;4991518;28;20100;-56
2022/11/16 07:59:05;;;;;;;12.63;11.82;;;;;;;;;;4993975;28;20564;-56
2022/11/16 08:01:31;;;;;;;13.27;12.27;;;;;;;;;;4992220;28;20025;-56
2022/11/16 08:03:57;;;;;;;12.32;11.57;;;;;;;;;;4994030;28;20368;-56
2022/11/16 08:06:25;;;;;;;11.73;11.02;;;;;;;;;;4992470;28;20022;-56
2022/11/16 08:08:51;;;;;;;11.13;10.43;;;;;;;;;;4991700;28;20453;-55
2022/11/16 08:11:16;;;;;;;13.18;12.27;;;;;;;;;;4990386;28;20034;-57
2022/11/16 08:13:41;;;;;;;11.18;10.38;;;;;;;;;;4991656;28;20037;-56
2022/11/16 08:16:09;;;;;;;10.18;9.48;;;;;;;;;;4989976;28;20036;-56
2022/11/16 08:18:36;;;;;;;11.13;10.05;;;;;;;;;;4994603;28;20046;-56
2022/11/16 08:21:03;;;;;;;9.27;8.68;;;;;;;;;;4992622;28;20688;-57
2022/11/16 08:23:30;;;;;;;10.23;9.52;;;;;;;;;;4994509;28;20034;-57
2022/11/16 08:26:08;;;;;;;9.73;9.13;;;;;;;;;;4992415;28;20022;-56
2022/11/16 08:28:33;;;;;;;8.98;8.38;;;;;;;;;;4993819;28;20038;-56
2022/11/16 08:30:59;;;;;;;9.32;8.73;;;;;;;;;;4992609;28;20507;-57
2022/11/16 08:33:27;;;;;;;9.80;9.20;;;;;;;;;;4990914;28;20030;-57
2022/11/16 08:35:53;;;;;;;9.10;8.50;;;;;;;;;;4992337;28;20794;-56
2022/11/16 08:38:19;;;;;;;9.45;8.85;;;;;;;;;;4993200;28;20116;-57
2022/11/16 08:40:46;;;;;;;8.90;8.30;;;;;;;;;;4994190;28;20120;-56
2022/11/16 08:43:11;;;;;;;9.18;8.57;;;;;;;;;;4994709;28;20026;-57
2022/11/16 08:45:38;;;;;;;8.23;7.72;;;;;;;;;;4993693;28;20069;-55
2022/11/16 08:48:04;;;;;;;9.27;8.55;;;;;;;;;;4991392;28;20026;-60
2022/11/16 08:50:30;;;;;;;8.25;7.65;;;;;;;;;;4994253;28;20479;-57
2022/11/16 08:52:56;;;;;;;8.15;7.55;;;;;;;;;;4994258;28;20040;-58
2022/11/16 08:55:22;;;;;;;8.50;7.82;;;;;;;;;;4996744;28;20026;-57
2022/11/16 08:57:47;;;;;;;8.20;7.70;;;;;;;;;;4991532;28;20158;-58
2022/11/16 09:00:13;;;;;;;7.97;7.38;;;;;;;;;;4993807;28;20026;-55
2022/11/16 09:02:38;;;;;;;7.70;7.20;;;;;;;;;;4992457;28;20041;-56
2022/11/16 09:05:04;;;;;;;8.07;7.57;;;;;;;;;;4990818;28;20045;-57
2022/11/16 09:07:30;;;;;;;8.25;7.75;;;;;;;;;;4994445;28;20026;-58
2022/11/16 09:09:55;;;;;;;7.90;7.40;;;;;;;;;;4994026;28;20048;-57
2022/11/16 09:12:21;;;;;;;8.38;7.78;;;;;;;;;;4975175;28;20022;-57
2022/11/16 09:14:46;;;;;;;8.35;7.75;;;;;;;;;;4990830;28;20033;-57
2022/11/16 09:17:12;;;;;;;8.98;8.20;;;;;;;;;;4991775;28;20621;-57
2022/11/16 09:19:37;;;;;;;7.85;7.32;;;;;;;;;;4991811;28;20053;-57
2022/11/16 09:22:03;;;;;;;7.43;6.93;;;;;;;;;;4990231;28;20026;-57
2022/11/16 09:24:28;;;;;;;7.95;7.45;;;;;;;;;;4993466;28;20030;-58
2022/11/16 09:26:55;;;;;;;8.50;7.90;;;;;;;;;;4993227;28;20479;-57
2022/11/16 09:29:21;;;;;;;8.52;7.82;;;;;;;;;;4993600;28;20152;-59
2022/11/16 09:31:46;;;;;;;8.70;7.88;;;;;;;;;;4991722;28;20030;-57
2022/11/16 09:34:11;;;;;;;8.73;8.07;;;;;;;;;;4995020;28;20072;-58
2022/11/16 09:36:37;;;;;;;7.72;7.22;;;;;;;;;;4996459;28;20041;-58
2022/11/16 09:39:02;;;;;;;7.72;7.03;;;;;;;;;;4995781;28;20084;-57
2022/11/16 09:41:46;;;;;;;8.20;7.60;;;;;;;;;;4994520;28;20076;-57
2022/11/16 09:44:39;;;;;;;8.23;7.63;;;;;;;;;;4995150;28;20038;-57
2022/11/16 09:47:11;;;;;;;7.40;6.90;;;;;;;;;;4998446;28;20042;-58
2022/11/16 09:49:45;;;;;;;8.50;7.80;;;;;;;;;;4997278;28;20034;-57
2022/11/16 09:52:31;;;;;;;8.98;8.38;;;;;;;;;;4995879;28;20123;-57
2022/11/16 09:55:01;;;;;;;10.50;9.77;;;;;;;;;;4993739;28;20100;-57
2022/11/16 09:57:35;;;;;;;9.25;8.65;;;;;;;;;;4993843;28;20415;-55
2022/11/16 10:00:11;;;;;;;9.95;9.20;;;;;;;;;;4996550;28;20053;-58
2022/11/16 10:02:44;;;;;;;9.30;8.60;;;;;;;;;;4993691;28;20542;-58
2022/11/16 10:05:23;;;;;;;10.10;9.30;;;;;;;;;;4991877;28;20069;-57
2022/11/16 10:08:01;;;;;;;9.60;8.90;;;;;;;;;;4995174;28;20037;-58
2022/11/16 10:10:37;;;;;;;9.18;8.43;;;;;;;;;;4993846;28;20029;-57
2022/11/16 10:13:35;;;;;;;9.65;8.95;;;;;;;;;;4994443;28;20084;-58
2022/11/16 10:16:09;;;;;;;7.70;7.20;;;;;;;;;;4994658;28;20065;-58
2022/11/16 10:19:06;;;;;;;8.38;7.72;;;;;;;;;;4993614;28;20099;-58
2022/11/16 10:21:54;;;;;;;8.50;7.90;;;;;;;;;;4991507;28;20033;-58
2022/11/16 10:24:23;;;;;;;7.93;7.43;;;;;;;;;;4995630;28;20037;-58
2022/11/16 10:27:21;;;;;;;7.88;7.38;;;;;;;;;;4994846;28;20042;-58
2022/11/16 10:30:12;;;;;;;8.77;8.18;;;;;;;;;;4989626;28;20108;-58
2022/11/16 10:32:56;;;;;;;8.82;8.13;;;;;;;;;;4992974;28;20097;-58
2022/11/16 10:35:29;;;;;;;9.30;8.55;;;;;;;;;;4992348;28;20120;-57
2022/11/16 10:37:58;;;;;;;8.95;8.35;;;;;;;;;;4993058;28;20034;-58
2022/11/16 10:40:34;;;;;;;9.50;8.73;;;;;;;;;;4993662;28;20033;-57
2022/11/16 10:43:12;;;;;;;8.25;7.65;;;;;;;;;;4991763;28;20026;-57
2022/11/16 10:45:59;;;;;;;7.60;7.10;;;;;;;;;;4992804;28;20137;-58
2022/11/16 10:48:30;;;;;;;8.10;7.53;;;;;;;;;;4992059;28;20030;-58
2022/11/16 10:50:56;;;;;;;17.00;8.75;;;;;;;;;;4992843;28;20034;-58
2022/11/16 10:53:26;;;;;;;9.55;8.48;;;;;;;;;;4996591;28;20034;-59
2022/11/16 10:56:08;;;;;;;8.20;7.60;;;;;;;;;;4989944;28;20029;-58
2022/11/16 10:58:55;;;;;;;8.02;7.53;;;;;;;;;;4992477;28;20081;-58
2022/11/16 11:01:39;;;;;;;7.50;7.00;;;;;;;;;;4992328;28;20379;-58
2022/11/16 11:04:23;;;;;;;8.40;7.90;;;;;;;;;;4992750;28;20022;-56
2022/11/16 11:06:57;;;;;;;8.00;7.50;;;;;;;;;;4991185;28;20034;-56
2022/11/16 11:09:26;;;;;;;8.35;7.57;;;;;;;;;;5000949;28;20072;-57
2022/11/16 11:15:21;;;;;;;8.77;8.18;;;;;;;;;;4993894;28;20026;-58
2022/11/16 11:17:49;;;;;;;7.28;6.78;;;;;;;;;;4994064;28;20108;-58
2022/11/16 11:20:14;;;;;;;7.80;7.30;;;;;;;;;;4976132;28;20113;-58
2022/11/16 11:23:01;;;;;;;8.43;7.85;;;;;;;;;;4992923;28;20514;-57
2022/11/16 11:25:35;;;;;;;10.00;9.35;;;;;;;;;;4991596;28;20062;-58
2022/11/16 11:28:27;;;;;;;8.93;8.32;;;;;;;;;;4996672;28;20113;-58
2022/11/16 11:30:55;;;;;;;9.93;9.32;;;;;;;;;;4993194;28;20033;-61
2022/11/16 11:33:22;;;;;;;12.32;11.35;;;;;;;;;;4993193;28;20050;-61
2022/11/16 11:36:19;;;;;;;12.82;12.02;;;;;;;;;;4993634;28;20109;-60
2022/11/16 11:39:34;;;;;;;13.98;13.02;;;;;;;;;;4991047;28;20054;-59
2022/11/16 11:42:01;;;;;;;11.15;10.45;;;;;;;;;;4990977;28;20532;-60
2022/11/16 11:44:37;;;;;;;12.07;11.23;;;;;;;;;;4995893;28;20062;-61
2022/11/16 11:47:24;;;;;;;11.52;10.82;;;;;;;;;;4995701;28;20337;-59
2022/11/16 11:49:56;;;;;;;12.73;11.93;;;;;;;;;;4992544;28;20029;-61
2022/11/16 11:52:35;;;;;;;11.05;10.25;;;;;;;;;;4991606;28;20415;-61
2022/11/16 11:55:02;;;;;;;11.73;11.00;;;;;;;;;;4990959;28;20037;-59
2022/11/16 11:57:27;;;;;;;9.75;9.05;;;;;;;;;;4993219;28;20032;-59
2022/11/16 11:59:53;;;;;;;10.00;9.27;;;;;;;;;;4991156;28;20368;-59
2022/11/16 12:03:20;;;;;;;10.20;9.60;;;;;;;;;;4992636;28;20113;-59
2022/11/16 12:05:58;;;;;;;9.02;8.43;;;;;;;;;;4952741;28;20051;-59
2022/11/16 12:08:45;;;;;;;9.77;9.18;;;;;;;;;;4995281;28;20073;-59
2022/11/16 12:11:44;;;;;;;10.15;9.55;;;;;;;;;;4993327;28;20033;-59
2022/11/16 12:14:22;;;;;;;10.40;9.25;;;;;;;;;;4992959;28;20038;-59
2022/11/16 12:17:09;;;;;;;9.52;8.93;;;;;;;;;;4994850;28;20448;-58
2022/11/16 12:20:14;;;;;;;8.98;8.38;;;;;;;;;;4993304;28;20103;-56
2022/11/16 12:22:55;;;;;;;10.27;9.57;;;;;;;;;;4989553;28;20046;-59
2022/11/16 12:25:43;;;;;;;;;;;;;;;;;;4996313;28;20363;-59
2022/11/16 12:28:30;;;;;;;11.50;10.80;;;;;;;;;;4988789;28;19928;-59
2022/11/16 12:31:14;;;;;;;13.82;12.98;;;;;;;;;;4993974;28;20033;-59
2022/11/16 12:33:54;;;;;;;14.52;13.73;;;;;;;;;;4993252;28;20106;-59
2022/11/16 12:36:54;;;;;;;12.90;12.15;;;;;;;;;;4993305;28;20027;-58
2022/11/16 12:39:34;;;;;;;16.65;15.75;;;;;;;;;;4993083;28;20048;-59
2022/11/16 12:42:10;;;;;;;15.38;14.48;;;;;;;;;;4991164;28;20049;-59
2022/11/16 12:44:38;;;;;;;16.30;15.40;;;;;;;;;;4988761;28;20600;-59
2022/11/16 12:47:30;;;;;;;16.58;15.68;;;;;;;;;;4994090;28;20756;-59
2022/11/16 12:50:04;;;;;;;17.38;16.40;;;;;;;;;;4989391;28;20046;-59
2022/11/16 12:52:32;;;;;;;17.80;16.80;;;;;;;;;;4991027;28;20040;-59
2022/11/16 12:55:17;;;;;;;19.75;18.65;;;;;;;;;;4991700;28;20117;-59
2022/11/16 12:57:57;;;;;;;17.38;16.38;;;;;;;;;;4994562;28;20072;-60
2022/11/16 13:00:22;;;;;;;20.85;19.55;;;;;;;;;;4992360;28;20095;-59
2022/11/16 13:03:12;;;;;;;20.15;19.05;;;;;;;;;;4991761;28;20041;-60
2022/11/16 13:05:48;;;;;;;19.13;17.92;;;;;;;;;;4992315;28;20041;-59
2022/11/16 13:08:22;;;;;;;22.35;20.70;;;;;;;;;;4997691;28;20034;-59
2022/11/16 13:10:53;;;;;;;20.05;18.95;;;;;;;;;;4995064;28;20464;-59
2022/11/16 13:13:30;;;;;;;20.35;19.25;;;;;;;;;;4994016;28;20114;-59
2022/11/16 13:15:58;;;;;;;19.70;18.60;;;;;;;;;;4994105;28;20030;-58
2022/11/16 13:18:24;;;;;;;17.77;16.67;;;;;;;;;;4996741;28;20095;-59
2022/11/16 13:20:57;;;;;;;17.83;16.83;;;;;;;;;;4996752;28;20400;-58
2022/11/16 13:23:29;;;;;;;19.45;18.13;;;;;;;;;;4998245;28;20439;-60
2022/11/16 13:26:09;;;;;;;17.50;16.50;;;;;;;;;;4999974;28;20110;-59
2022/11/16 13:28:41;;;;;;;16.58;15.68;;;;;;;;;;4994837;28;20481;-60
2022/11/16 13:31:26;;;;;;;17.42;16.42;;;;;;;;;;4996776;28;20033;-58
2022/11/16 13:33:57;;;;;;;16.02;15.13;;;;;;;;;;4997188;28;20033;-59
2022/11/16 13:36:35;;;;;;;;;;;;;;;;;;4996841;28;20030;-58
2022/11/16 13:39:01;;;;;;;15.20;14.32;;;;;;;;;;4995778;28;20039;-58
2022/11/16 13:41:36;;;;;;;21.20;20.00;;;;;;;;;;4995464;28;20894;-55
2022/11/16 13:44:04;;;;;;;20.60;19.50;;;;;;;;;;4996575;28;20050;-58
2022/11/16 13:46:52;;;;;;;20.73;19.63;;;;;;;;;;4996260;28;20713;-59
2022/11/16 13:49:25;;;;;;;21.00;19.90;;;;;;;;;;4995538;28;20049;-58
2022/11/16 13:51:56;;;;;;;22.20;21.00;;;;;;;;;;4993899;28;20034;-58
2022/11/16 13:54:36;;;;;;;21.08;19.98;;;;;;;;;;4993068;28;20053;-57
2022/11/16 13:57:17;;;;;;;19.95;18.85;;;;;;;;;;4996100;28;20038;-58
2022/11/16 13:59:43;;;;;;;17.30;15.98;;;;;;;;;;4994081;28;20042;-59
2022/11/16 14:02:28;;;;;;;18.15;16.77;;;;;;;;;;4996215;28;20034;-59
2022/11/16 14:04:55;;;;;;;17.25;16.25;;;;;;;;;;4997985;28;20038;-58
2022/11/16 14:07:32;;;;;;;15.43;14.52;;;;;;;;;;4995730;28;20464;-58
2022/11/16 14:09:58;;;;;;;15.60;14.70;;;;;;;;;;4996737;28;20049;-59
2022/11/16 14:13:08;;;;;;;15.40;14.50;;;;;;;;;;4998273;28;20022;-57
2022/11/16 14:15:36;;;;;;;15.10;14.20;;;;;;;;;;4978829;28;20056;-59
2022/11/16 14:18:10;;;;;;;16.60;15.70;;;;;;;;;;5000635;28;20364;-58
2022/11/16 14:21:00;;;;;;;16.13;15.23;;;;;;;;;;4994592;28;20042;-58
2022/11/16 14:23:25;;;;;;;15.13;14.25;;;;;;;;;;4993593;28;20057;-58
2022/11/16 14:26:32;;;;;;;13.20;12.40;;;;;;;;;;4995503;28;20456;-58
2022/11/16 14:29:19;;;;;;;13.68;12.88;;;;;;;;;;4944468;29;20046;-58
2022/11/16 14:31:51;;;;;;;14.68;13.68;;;;;;;;;;4941589;29;20070;-58
2022/11/16 14:34:21;;;;;;;13.73;12.93;;;;;;;;;;4976571;28;20049;-59
2022/11/16 14:36:48;;;;;;;13.07;12.27;;;;;;;;;;4992864;28;20038;-58
2022/11/16 14:39:15;;;;;;;24.38;12.98;;;;;;;;;;4997383;28;20029;-58
2022/11/16 14:41:43;;;;;;;14.82;13.68;;;;;;;;;;4991372;28;20499;-58
2022/11/16 14:44:10;;;;;;;13.07;12.27;;;;;;;;;;4996286;28;20588;-57
2022/11/16 14:46:37;;;;;;;13.73;12.93;;;;;;;;;;4994980;28;20038;-58
2022/11/16 14:49:03;;;;;;;12.40;11.70;;;;;;;;;;4995906;28;20026;-58
2022/11/16 14:51:32;;;;;;;11.07;10.38;;;;;;;;;;4989298;28;20084;-57
2022/11/16 14:54:02;;;;;;;11.70;11.00;;;;;;;;;;4996991;28;20173;-58
2022/11/16 14:56:27;;;;;;;11.30;10.60;;;;;;;;;;4996074;28;20072;-58
2022/11/16 14:58:54;;;;;;;12.02;11.27;;;;;;;;;;4996177;28;20084;-57
2022/11/16 15:01:23;;;;;;;11.63;10.93;;;;;;;;;;4993906;28;20560;-58
2022/11/16 15:04:01;;;;;;;10.02;9.43;;;;;;;;;;4992332;28;20029;-57
2022/11/16 15:06:29;;;;;;;11.57;10.88;;;;;;;;;;4994177;28;20034;-58
2022/11/16 15:09:01;;;;;;;8.65;8.10;;;;;;;;;;4992264;28;20041;-57
2022/11/16 15:14:18;;;;;;;9.18;8.57;;;;;;;;;;4993849;28;20021;-57
2022/11/16 15:16:51;;;;;;;10.52;9.73;;;;;;;;;;5007871;28;20654;-58
2022/11/16 15:19:17;;;;;;;11.25;10.55;;;;;;;;;;4994311;28;20029;-57
2022/11/16 15:22:16;;;;;;;11.80;11.10;;;;;;;;;;4993156;28;20041;-57
2022/11/16 15:24:41;;;;;;;9.77;9.18;;;;;;;;;;4980497;28;20092;-57
2022/11/16 15:27:24;;;;;;;9.75;9.15;;;;;;;;;;4992767;28;20409;-58
2022/11/16 15:29:49;;;;;;;8.93;8.32;;;;;;;;;;4993729;28;20035;-58
2022/11/16 15:32:16;;;;;;;10.23;9.43;;;;;;;;;;4990899;28;20463;-58
2022/11/16 15:34:44;;;;;;;8.82;8.23;;;;;;;;;;4994924;28;20053;-60
2022/11/16 15:37:11;;;;;;;8.45;7.85;;;;;;;;;;4997281;28;20116;-60